createdAt,value
2018-09-10T00:01:18.913Z,100.00
2018-09-10T00:03:47.261Z,100.00
2018-09-10T00:06:15.691Z,100.00
2018-09-10T00:08:45.462Z,100.00
2018-09-10T00:11:13.701Z,100.00
2018-09-10T00:13:41.951Z,100.00
2018-09-10T00:16:10.453Z,100.00
2018-09-10T00:18:38.732Z,100.00
2018-09-10T00:21:06.927Z,100.00
2018-09-10T00:23:35.833Z,100.00
2018-09-10T00:26:04.021Z,100.00
2018-09-10T00:28:32.235Z,100.00
2018-09-10T00:31:01.137Z,100.00
2018-09-10T00:33:29.410Z,100.00
2018-09-10T00:35:57.585Z,100.00
2018-09-10T00:38:26.105Z,100.00
2018-09-10T00:40:54.340Z,100.00
2018-09-10T00:43:23.008Z,100.00
2018-09-10T00:45:51.360Z,100.00
2018-09-10T00:48:19.580Z,100.00
2018-09-10T00:50:47.755Z,100.00
2018-09-10T00:53:16.042Z,100.00
2018-09-10T00:55:44.278Z,100.00
2018-09-10T00:58:12.730Z,100.00
2018-09-10T01:00:41.251Z,100.00
2018-09-10T01:03:09.705Z,100.00
2018-09-10T01:05:37.909Z,100.00
2018-09-10T01:08:06.082Z,100.00
2018-09-10T01:10:34.371Z,100.00
2018-09-10T01:13:02.682Z,100.00
2018-09-10T01:15:31.109Z,100.00
2018-09-10T01:17:59.304Z,100.00
2018-09-10T01:20:27.473Z,100.00
2018-09-10T01:22:55.637Z,100.00
2018-09-10T01:25:23.829Z,100.00
2018-09-10T01:27:52.145Z,100.00
2018-09-10T01:30:20.421Z,100.00
2018-09-10T01:32:48.603Z,100.00
2018-09-10T01:35:17.119Z,100.00
2018-09-10T01:37:45.304Z,100.00
2018-09-10T01:40:13.827Z,100.00
2018-09-10T01:42:42.005Z,100.00
2018-09-10T01:45:10.235Z,100.00
2018-09-10T01:47:38.856Z,100.00
2018-09-10T01:50:07.038Z,100.00
2018-09-10T01:52:35.251Z,100.00
2018-09-10T01:55:03.774Z,100.00
2018-09-10T01:57:31.942Z,100.00
2018-09-10T02:00:00.196Z,100.00
2018-09-10T02:02:28.957Z,100.00
2018-09-10T02:04:57.138Z,100.00
2018-09-10T02:07:25.337Z,100.00
2018-09-10T02:09:53.611Z,100.00
2018-09-10T02:12:25.723Z,100.00
2018-09-10T02:14:55.481Z,100.00
2018-09-10T02:17:24.335Z,100.00
2018-09-10T02:19:52.525Z,100.00
2018-09-10T02:22:21.101Z,100.00
2018-09-10T02:24:49.271Z,100.00
2018-09-10T02:27:17.458Z,100.00
2018-09-10T02:29:45.671Z,100.00
2018-09-10T02:32:14.130Z,100.00
2018-09-10T02:34:42.297Z,100.00
2018-09-10T02:37:10.497Z,100.00
2018-09-10T02:39:38.818Z,100.00
2018-09-10T02:42:07.009Z,100.00
2018-09-10T02:44:35.205Z,100.00
2018-09-10T02:47:03.410Z,100.00
2018-09-10T02:49:31.670Z,100.00
2018-09-10T02:52:00.096Z,100.00
2018-09-10T02:54:28.499Z,100.00
2018-09-10T02:56:56.746Z,100.00
2018-09-10T02:59:24.921Z,100.00
2018-09-10T03:01:53.369Z,100.00
2018-09-10T03:04:21.625Z,100.00
2018-09-10T03:06:50.093Z,100.00
2018-09-10T03:09:18.852Z,100.00
2018-09-10T03:11:47.034Z,100.00
2018-09-10T03:14:15.225Z,100.00
2018-09-10T03:16:43.676Z,100.00
2018-09-10T03:19:11.937Z,100.00
2018-09-10T03:21:40.341Z,100.00
2018-09-10T03:24:08.857Z,100.00
2018-09-10T03:26:37.088Z,100.00
2018-09-10T03:29:05.454Z,100.00
2018-09-10T03:31:33.684Z,100.00
2018-09-10T03:34:02.189Z,100.00
2018-09-10T03:36:30.385Z,100.00
2018-09-10T03:38:58.594Z,100.00
2018-09-10T03:41:26.759Z,100.00
2018-09-10T03:43:54.955Z,100.00
2018-09-10T03:46:23.179Z,100.00
2018-09-10T03:48:51.841Z,100.00
2018-09-10T03:51:20.119Z,100.00
2018-09-10T03:53:49.409Z,100.00
2018-09-10T03:56:17.591Z,100.00
2018-09-10T03:58:45.979Z,100.00
2018-09-10T04:01:14.234Z,100.00
2018-09-10T04:03:42.505Z,100.00
2018-09-10T04:06:10.930Z,100.00
2018-09-10T04:08:39.139Z,100.00
2018-09-10T04:11:07.447Z,100.00
2018-09-10T04:13:35.674Z,100.00
2018-09-10T04:16:03.873Z,100.00
2018-09-10T04:18:32.083Z,100.00
2018-09-10T04:21:00.369Z,100.00
2018-09-10T04:23:28.561Z,100.00
2018-09-10T04:25:56.813Z,100.00
2018-09-10T04:28:25.295Z,100.00
2018-09-10T04:30:53.549Z,100.00
2018-09-10T04:33:21.825Z,100.00
2018-09-10T04:35:50.046Z,100.00
2018-09-10T04:38:18.276Z,100.00
2018-09-10T04:40:46.449Z,100.00
2018-09-10T04:43:14.941Z,100.00
2018-09-10T04:45:43.201Z,100.00
2018-09-10T04:48:11.493Z,100.00
2018-09-10T04:50:40.089Z,100.00
2018-09-10T04:53:08.275Z,100.00
2018-09-10T04:55:36.529Z,100.00
2018-09-10T04:58:04.843Z,100.00
2018-09-10T05:00:33.973Z,100.00
2018-09-10T05:03:02.470Z,100.00
2018-09-10T05:05:30.767Z,100.00
2018-09-10T05:07:58.950Z,100.00
2018-09-10T05:10:27.127Z,100.00
2018-09-10T05:12:55.548Z,100.00
2018-09-10T05:15:23.754Z,100.00
2018-09-10T05:17:51.952Z,100.00
2018-09-10T05:20:20.534Z,100.00
2018-09-10T05:22:49.066Z,100.00
2018-09-10T05:25:17.261Z,100.00
2018-09-10T05:27:45.688Z,100.00
2018-09-10T05:30:13.887Z,100.00
2018-09-10T05:32:42.098Z,100.00
2018-09-10T05:35:11.313Z,100.00
2018-09-10T05:37:39.581Z,100.00
2018-09-10T05:40:08.933Z,100.00
2018-09-10T05:42:37.161Z,100.00
2018-09-10T05:45:06.633Z,100.00
2018-09-10T05:47:35.331Z,100.00
2018-09-10T05:50:03.553Z,100.00
2018-09-10T05:52:31.783Z,100.00
2018-09-10T05:54:59.968Z,100.00
2018-09-10T05:57:28.177Z,100.00
2018-09-10T05:59:56.379Z,100.00
2018-09-10T06:02:24.589Z,100.00
2018-09-10T06:04:52.921Z,100.00
2018-09-10T06:07:21.111Z,100.00
2018-09-10T06:09:49.283Z,100.00
2018-09-10T06:12:17.526Z,100.00
2018-09-10T06:14:45.993Z,100.00
2018-09-10T06:17:14.261Z,100.00
2018-09-10T06:19:42.556Z,100.00
2018-09-10T06:22:10.760Z,100.00
2018-09-10T06:24:38.998Z,100.00
2018-09-10T06:27:07.544Z,100.00
2018-09-10T06:29:35.736Z,100.00
2018-09-10T06:32:03.908Z,100.00
2018-09-10T06:34:32.094Z,100.00
2018-09-10T06:37:00.331Z,100.00
2018-09-10T06:39:28.486Z,100.00
2018-09-10T06:41:56.742Z,100.00
2018-09-10T06:44:24.982Z,100.00
2018-09-10T06:46:53.210Z,100.00
2018-09-10T06:49:21.401Z,100.00
2018-09-10T06:51:50.241Z,100.00
2018-09-10T06:54:18.552Z,100.00
2018-09-10T06:56:46.723Z,100.00
2018-09-10T06:59:14.891Z,100.00
2018-09-10T07:01:43.097Z,100.00
2018-09-10T07:04:11.285Z,100.00
2018-09-10T07:06:39.465Z,100.00
2018-09-10T07:09:09.454Z,100.00
2018-09-10T07:11:38.289Z,100.00
2018-09-10T07:14:06.559Z,100.00
2018-09-10T07:16:35.001Z,100.00
2018-09-10T07:19:03.283Z,100.00
2018-09-10T07:21:31.641Z,100.00
2018-09-10T07:23:59.865Z,100.00
2018-09-10T07:26:28.159Z,100.00
2018-09-10T07:28:56.415Z,100.00
2018-09-10T07:31:24.584Z,100.00
2018-09-10T07:33:52.778Z,100.00
2018-09-10T07:36:21.108Z,100.00
2018-09-10T07:38:49.618Z,100.00
2018-09-10T07:41:17.831Z,100.00
2018-09-10T07:43:46.062Z,100.00
2018-09-10T07:46:14.245Z,100.00
2018-09-10T07:48:42.448Z,100.00
2018-09-10T07:51:10.630Z,100.00
2018-09-10T07:53:38.830Z,100.00
2018-09-10T07:56:07.260Z,100.00
2018-09-10T07:58:35.823Z,100.00
2018-09-10T08:01:04.285Z,100.00
2018-09-10T08:03:32.505Z,100.00
2018-09-10T08:06:00.689Z,100.00
2018-09-10T08:08:29.249Z,100.00
2018-09-10T08:10:57.537Z,100.00
2018-09-10T08:13:25.813Z,100.00
2018-09-10T08:15:54.099Z,100.00
2018-09-10T08:18:22.288Z,100.00
2018-09-10T08:20:50.507Z,100.00
2018-09-10T08:23:19.817Z,100.00
2018-09-10T08:25:48.053Z,100.00
2018-09-10T08:28:16.467Z,100.00
2018-09-10T08:30:44.652Z,100.00
2018-09-10T08:33:12.832Z,100.00
2018-09-10T08:35:41.035Z,100.00
2018-09-10T08:38:09.202Z,100.00
2018-09-10T08:40:37.398Z,100.00
2018-09-10T08:43:06.082Z,100.00
2018-09-10T08:45:34.282Z,100.00
2018-09-10T08:48:02.502Z,100.00
2018-09-10T08:50:30.764Z,100.00
2018-09-10T08:52:59.042Z,100.00
2018-09-10T08:55:27.454Z,100.00
2018-09-10T08:57:55.486Z,100.00
2018-09-10T09:00:23.738Z,100.00
2018-09-10T09:02:52.090Z,100.00
2018-09-10T09:05:20.278Z,100.00
2018-09-10T09:07:48.454Z,100.00
2018-09-10T09:10:17.002Z,100.00
2018-09-10T09:12:45.247Z,100.00
2018-09-10T09:15:13.530Z,100.00
2018-09-10T09:17:41.738Z,100.00
2018-09-10T09:20:10.137Z,100.00
2018-09-10T09:22:38.949Z,100.00
2018-09-10T09:25:07.177Z,100.00
2018-09-10T09:27:35.347Z,100.00
2018-09-10T09:30:03.649Z,100.00
2018-09-10T09:32:31.884Z,100.00
2018-09-10T09:35:00.192Z,100.00
2018-09-10T09:37:33.634Z,100.00
2018-09-10T09:40:07.236Z,100.00
2018-09-10T09:42:40.874Z,100.00
2018-09-10T09:45:14.374Z,97.23
2018-09-10T09:47:42.554Z,98.25
2018-09-10T09:50:10.720Z,92.53
2018-09-10T09:52:38.980Z,95.55
2018-09-10T09:55:07.178Z,90.87
2018-09-10T09:57:35.338Z,92.33
2018-09-10T10:00:03.802Z,80.58
2018-09-10T10:02:37.442Z,78.17
2018-09-10T10:05:05.628Z,76.02
2018-09-10T10:07:33.814Z,76.01
2018-09-10T10:10:02.040Z,76.13
2018-09-10T10:12:30.312Z,75.31
2018-09-10T10:14:58.473Z,73.31
2018-09-10T10:17:26.641Z,71.69
2018-09-10T10:19:54.932Z,75.77
2018-09-10T10:22:23.100Z,70.02
2018-09-10T10:24:51.280Z,69.26
2018-09-10T10:27:19.446Z,64.58
2018-09-10T10:29:47.625Z,62.79
2018-09-10T10:32:15.853Z,68.50
2018-09-10T10:34:44.066Z,68.21
2018-09-10T10:37:12.238Z,61.61
2018-09-10T10:39:40.421Z,61.26
2018-09-10T10:42:08.581Z,58.35
2018-09-10T10:44:36.759Z,57.78
2018-09-10T10:47:05.162Z,58.84
2018-09-10T10:49:33.334Z,37.55
2018-09-10T10:52:01.610Z,26.92
2018-09-10T10:54:30.121Z,24.86
2018-09-10T10:56:58.356Z,22.17
2018-09-10T10:59:26.562Z,20.97
2018-09-10T11:01:54.818Z,23.14
2018-09-10T11:04:23.074Z,23.53
2018-09-10T11:06:51.254Z,22.06
2018-09-10T11:09:19.441Z,21.70
2018-09-10T11:11:47.701Z,21.00
2018-09-10T11:14:15.869Z,20.59
2018-09-10T11:16:44.135Z,22.14
2018-09-10T11:19:12.317Z,22.93
2018-09-10T11:21:40.726Z,23.36
2018-09-10T11:24:08.953Z,23.45
2018-09-10T11:26:37.133Z,21.40
2018-09-10T11:29:05.557Z,20.12
2018-09-10T11:31:33.827Z,18.43
2018-09-10T11:34:02.072Z,25.09
2018-09-10T11:36:30.229Z,27.44
2018-09-10T11:38:58.657Z,24.81
2018-09-10T11:41:27.145Z,23.11
2018-09-10T11:43:55.353Z,18.90
2018-09-10T11:46:23.656Z,21.04
2018-09-10T11:48:51.775Z,19.91
2018-09-10T11:51:20.275Z,24.45
2018-09-10T11:53:48.756Z,22.41
2018-09-10T11:56:16.992Z,24.18
2018-09-10T11:58:45.158Z,25.55
2018-09-10T12:01:13.354Z,27.48
2018-09-10T12:03:41.603Z,28.11
2018-09-10T12:06:09.938Z,29.55
2018-09-10T12:08:38.166Z,26.52
2018-09-10T12:11:06.625Z,27.23
2018-09-10T12:13:34.898Z,26.06
2018-09-10T12:16:03.037Z,22.39
2018-09-10T12:18:31.265Z,21.98
2018-09-10T12:20:59.416Z,20.74
2018-09-10T12:23:27.632Z,18.51
2018-09-10T12:25:56.119Z,17.16
2018-09-10T12:28:24.300Z,18.75
2018-09-10T12:30:52.556Z,18.04
2018-09-10T12:33:20.730Z,18.55
2018-09-10T12:35:49.202Z,18.68
2018-09-10T12:38:17.623Z,18.83
2018-09-10T12:40:45.790Z,19.27
2018-09-10T12:43:14.017Z,20.29
2018-09-10T12:45:42.221Z,22.63
2018-09-10T12:48:10.540Z,20.28
2018-09-10T12:50:38.755Z,22.80
2018-09-10T12:53:06.929Z,19.99
2018-09-10T12:55:35.097Z,18.39
2018-09-10T12:58:03.378Z,17.60
2018-09-10T13:00:31.561Z,16.82
2018-09-10T13:02:59.727Z,16.59
2018-09-10T13:05:28.417Z,18.61
2018-09-10T13:07:56.609Z,24.94
2018-09-10T13:10:25.129Z,25.03
2018-09-10T13:12:53.289Z,23.52
2018-09-10T13:15:21.473Z,21.68
2018-09-10T13:17:49.700Z,25.06
2018-09-10T13:20:17.865Z,25.41
2018-09-10T13:22:46.117Z,23.82
2018-09-10T13:25:14.293Z,27.08
2018-09-10T13:27:42.493Z,30.56
2018-09-10T13:30:10.678Z,31.29
2018-09-10T13:32:38.853Z,32.51
2018-09-10T13:35:08.911Z,30.25
2018-09-10T13:37:37.089Z,28.80
2018-09-10T13:40:05.309Z,28.95
2018-09-10T13:42:33.859Z,25.99
2018-09-10T13:45:02.206Z,19.50
2018-09-10T13:47:30.725Z,19.19
2018-09-10T13:49:58.875Z,20.11
2018-09-10T13:52:27.309Z,18.29
2018-09-10T13:54:55.578Z,17.60
2018-09-10T13:57:23.812Z,17.46
2018-09-10T13:59:52.012Z,15.55
2018-09-10T14:02:20.520Z,16.83
2018-09-10T14:04:48.847Z,17.18
2018-09-10T14:07:17.106Z,18.22
2018-09-10T14:09:45.295Z,22.36
2018-09-10T14:12:13.473Z,26.73
2018-09-10T14:14:41.904Z,27.63
2018-09-10T14:17:10.226Z,29.51
2018-09-10T14:19:38.419Z,30.81
2018-09-10T14:22:06.625Z,27.15
2018-09-10T14:24:34.890Z,26.94
2018-09-10T14:27:03.433Z,24.96
2018-09-10T14:29:31.666Z,21.72
2018-09-10T14:31:59.956Z,24.40
2018-09-10T14:34:28.208Z,18.41
2018-09-10T14:36:56.442Z,16.26
2018-09-10T14:39:24.633Z,19.25
2018-09-10T14:41:52.833Z,24.08
2018-09-10T14:44:21.393Z,26.22
2018-09-10T14:46:49.591Z,27.15
2018-09-10T14:49:17.813Z,25.94
2018-09-10T14:51:46.365Z,26.07
2018-09-10T14:54:14.621Z,25.44
2018-09-10T14:56:42.804Z,26.91
2018-09-10T14:59:10.985Z,27.27
2018-09-10T15:01:39.169Z,27.57
2018-09-10T15:04:07.649Z,27.68
2018-09-10T15:06:35.831Z,26.38
2018-09-10T15:09:05.255Z,27.95
2018-09-10T15:11:33.460Z,28.33
2018-09-10T15:14:01.812Z,28.03
2018-09-10T15:16:30.667Z,28.73
2018-09-10T15:18:58.994Z,28.90
2018-09-10T15:21:27.028Z,29.96
2018-09-10T15:23:55.321Z,31.48
2018-09-10T15:26:23.710Z,32.00
2018-09-10T15:28:52.361Z,33.22
2018-09-10T15:31:20.580Z,33.83
2018-09-10T15:33:48.752Z,35.69
2018-09-10T15:36:16.924Z,34.84
2018-09-10T15:38:45.565Z,34.17
2018-09-10T15:41:13.811Z,34.43
2018-09-10T15:43:42.017Z,34.96
2018-09-10T15:46:10.856Z,35.08
2018-09-10T15:48:39.102Z,36.35
2018-09-10T15:51:07.384Z,36.68
2018-09-10T15:53:35.520Z,37.10
2018-09-10T15:56:03.838Z,37.28
2018-09-10T15:58:32.017Z,36.93
2018-09-10T16:01:00.537Z,36.85
2018-09-10T16:03:28.805Z,36.58
2018-09-10T16:05:57.002Z,36.69
2018-09-10T16:08:25.501Z,37.33
2018-09-10T16:10:53.757Z,37.96
2018-09-10T16:13:21.945Z,37.40
2018-09-10T16:15:50.213Z,38.50
2018-09-10T16:18:18.481Z,39.01
2018-09-10T16:20:46.678Z,39.87
2018-09-10T16:23:14.917Z,39.94
2018-09-10T16:25:43.131Z,39.90
2018-09-10T16:28:11.309Z,40.79
2018-09-10T16:30:39.469Z,40.91
2018-09-10T16:33:07.839Z,41.72
2018-09-10T16:35:37.051Z,42.40
2018-09-10T16:38:05.490Z,42.71
2018-09-10T16:40:33.782Z,43.54
2018-09-10T16:43:02.004Z,44.70
2018-09-10T16:45:30.229Z,44.84
2018-09-10T16:47:58.550Z,45.47
2018-09-10T16:50:26.865Z,46.30
2018-09-10T16:52:55.112Z,47.01
2018-09-10T16:55:23.283Z,48.35
2018-09-10T16:57:51.682Z,48.61
2018-09-10T17:00:20.034Z,49.87
2018-09-10T17:02:48.825Z,50.22
2018-09-10T17:05:17.025Z,50.44
2018-09-10T17:07:45.243Z,51.33
2018-09-10T17:10:13.657Z,52.55
2018-09-10T17:12:42.115Z,53.75
2018-09-10T17:15:10.256Z,54.40
2018-09-10T17:17:38.425Z,54.83
2018-09-10T17:20:06.709Z,54.73
2018-09-10T17:22:34.980Z,55.69
2018-09-10T17:25:03.424Z,58.73
2018-09-10T17:27:31.637Z,60.73
2018-09-10T17:29:59.812Z,61.65
2018-09-10T17:32:28.008Z,61.94
2018-09-10T17:34:56.191Z,62.40
2018-09-10T17:37:24.371Z,63.97
2018-09-10T17:39:52.558Z,63.10
2018-09-10T17:42:20.787Z,64.62
2018-09-10T17:44:48.940Z,65.91
2018-09-10T17:47:17.231Z,65.97
2018-09-10T17:49:45.798Z,67.25
2018-09-10T17:52:13.982Z,67.21
2018-09-10T17:54:42.813Z,68.22
2018-09-10T17:57:11.002Z,69.47
2018-09-10T17:59:39.230Z,69.72
2018-09-10T18:02:07.634Z,70.01
2018-09-10T18:04:35.863Z,72.99
2018-09-10T18:07:04.135Z,72.03
2018-09-10T18:09:32.359Z,75.56
2018-09-10T18:12:00.569Z,76.03
2018-09-10T18:14:28.743Z,76.81
2018-09-10T18:16:56.957Z,73.25
2018-09-10T18:19:26.013Z,71.62
2018-09-10T18:21:54.206Z,73.32
2018-09-10T18:24:22.707Z,71.89
2018-09-10T18:26:51.150Z,73.12
2018-09-10T18:29:19.337Z,71.22
2018-09-10T18:31:47.532Z,68.14
2018-09-10T18:34:15.753Z,68.79
2018-09-10T18:36:44.005Z,71.08
2018-09-10T18:39:12.253Z,73.00
2018-09-10T18:41:40.456Z,76.01
2018-09-10T18:44:08.916Z,79.98
2018-09-10T18:46:37.222Z,80.88
2018-09-10T18:49:05.678Z,78.97
2018-09-10T18:51:33.764Z,78.75
2018-09-10T18:54:01.979Z,76.89
2018-09-10T18:56:30.640Z,78.15
2018-09-10T18:58:58.838Z,71.53
2018-09-10T19:01:27.134Z,72.66
2018-09-10T19:03:55.247Z,73.21
2018-09-10T19:06:23.498Z,73.79
2018-09-10T19:08:51.782Z,73.40
2018-09-10T19:11:20.058Z,73.67
2018-09-10T19:13:48.250Z,75.40
2018-09-10T19:16:16.441Z,79.21
2018-09-10T19:18:44.633Z,92.54
2018-09-10T19:21:12.813Z,88.42
2018-09-10T19:23:41.006Z,90.19
2018-09-10T19:26:09.218Z,90.92
2018-09-10T19:28:37.441Z,93.25
2018-09-10T19:31:05.657Z,94.77
2018-09-10T19:33:33.873Z,96.29
2018-09-10T19:36:02.261Z,97.93
2018-09-10T19:38:30.499Z,98.96
2018-09-10T19:40:58.824Z,100.00
2018-09-10T19:43:27.033Z,100.00
2018-09-10T19:45:55.324Z,100.00
2018-09-10T19:48:23.504Z,100.00
2018-09-10T19:50:51.751Z,100.00
2018-09-10T19:53:19.938Z,100.00
2018-09-10T19:55:48.124Z,100.00
2018-09-10T19:58:16.537Z,100.00
2018-09-10T20:00:44.874Z,100.00
2018-09-10T20:03:13.144Z,100.00
2018-09-10T20:05:41.372Z,100.00
2018-09-10T20:08:09.570Z,100.00
2018-09-10T20:10:38.106Z,100.00
2018-09-10T20:13:06.552Z,100.00
2018-09-10T20:15:35.070Z,100.00
2018-09-10T20:18:03.352Z,100.00
2018-09-10T20:20:31.654Z,100.00
2018-09-10T20:22:59.861Z,100.00
2018-09-10T20:25:28.410Z,100.00
2018-09-10T20:27:56.721Z,100.00
2018-09-10T20:30:25.007Z,100.00
2018-09-10T20:32:53.229Z,100.00
2018-09-10T20:35:22.652Z,100.00
2018-09-10T20:37:50.841Z,100.00
2018-09-10T20:40:19.154Z,100.00
2018-09-10T20:42:47.398Z,100.00
2018-09-10T20:45:15.687Z,100.00
2018-09-10T20:47:44.116Z,100.00
2018-09-10T20:50:12.413Z,100.00
2018-09-10T20:52:40.621Z,100.00
2018-09-10T20:55:08.898Z,100.00
2018-09-10T20:57:37.077Z,100.00
2018-09-10T21:00:05.534Z,100.00
2018-09-10T21:02:33.730Z,100.00
2018-09-10T21:05:02.142Z,100.00
2018-09-10T21:07:30.319Z,100.00
2018-09-10T21:09:58.594Z,100.00
2018-09-10T21:12:26.790Z,100.00
2018-09-10T21:14:55.093Z,100.00
2018-09-10T21:17:23.546Z,100.00
2018-09-10T21:19:51.733Z,100.00
2018-09-10T21:22:20.929Z,100.00
2018-09-10T21:24:50.084Z,100.00
2018-09-10T21:27:18.747Z,100.00
2018-09-10T21:29:47.867Z,100.00
2018-09-10T21:32:16.871Z,100.00
2018-09-10T21:34:46.096Z,100.00
2018-09-10T21:37:15.247Z,100.00
2018-09-10T21:39:44.415Z,100.00
2018-09-10T21:42:13.453Z,100.00
2018-09-10T21:44:42.556Z,100.00
2018-09-10T21:47:12.520Z,100.00
2018-09-10T21:49:41.551Z,100.00
2018-09-10T21:52:10.833Z,100.00
2018-09-10T21:54:39.997Z,100.00
2018-09-10T21:57:09.196Z,100.00
2018-09-10T21:59:38.169Z,100.00
2018-09-10T22:02:07.231Z,100.00
2018-09-10T22:04:36.556Z,100.00
2018-09-10T22:07:06.193Z,100.00
2018-09-10T22:09:34.842Z,100.00
2018-09-10T22:12:04.787Z,100.00
2018-09-10T22:14:34.780Z,100.00
2018-09-10T22:17:04.224Z,100.00
2018-09-10T22:19:33.359Z,100.00
2018-09-10T22:22:02.599Z,100.00
2018-09-10T22:24:31.695Z,100.00
2018-09-10T22:27:01.579Z,100.00
2018-09-10T22:29:31.592Z,100.00
2018-09-10T22:32:00.780Z,100.00
2018-09-10T22:34:29.974Z,100.00
2018-09-10T22:36:59.335Z,100.00
2018-09-10T22:39:28.380Z,100.00
2018-09-10T22:41:58.420Z,100.00
2018-09-10T22:44:28.574Z,100.00
2018-09-10T22:46:58.332Z,100.00
2018-09-10T22:49:27.223Z,100.00
2018-09-10T22:51:56.789Z,100.00
2018-09-10T22:54:25.999Z,100.00
2018-09-10T22:56:55.189Z,100.00
2018-09-10T22:59:24.285Z,100.00
2018-09-10T23:01:53.459Z,100.00
2018-09-10T23:04:22.721Z,100.00
2018-09-10T23:06:51.179Z,100.00
2018-09-10T23:09:19.847Z,100.00
2018-09-10T23:11:48.239Z,100.00
2018-09-10T23:14:16.525Z,100.00
2018-09-10T23:16:44.801Z,100.00
2018-09-10T23:19:13.179Z,100.00
2018-09-10T23:21:41.728Z,100.00
2018-09-10T23:24:10.018Z,100.00
2018-09-10T23:26:38.234Z,100.00
2018-09-10T23:29:06.808Z,100.00
2018-09-10T23:31:35.158Z,100.00
2018-09-10T23:34:03.396Z,100.00
2018-09-10T23:36:31.993Z,100.00
2018-09-10T23:39:00.242Z,100.00
2018-09-10T23:41:28.545Z,100.00
2018-09-10T23:43:56.829Z,100.00
2018-09-10T23:46:25.074Z,100.00
2018-09-10T23:48:53.378Z,100.00
2018-09-10T23:51:21.603Z,100.00
2018-09-10T23:53:49.845Z,100.00
2018-09-10T23:56:18.105Z,100.00
2018-09-10T23:58:46.331Z,100.00
